sensor_id;sensor_type;location;lat;lon;timestamp;pressure;altitude;pressure_sealevel;temperature;humidity
21273;BME280;36726;52.328;10.552;2022-09-09T00:03:59;99994.13;;;13.96;100.00
21273;BME280;36726;52.328;10.552;2022-09-09T00:06:31;99998.56;;;13.94;100.00
21273;BME280;36726;52.328;10.552;2022-09-09T00:09:12;100008.34;;;13.93;100.00
21273;BME280;36726;52.328;10.552;2022-09-09T00:11:51;100004.81;;;13.93;100.00
21273;BME280;36726;52.328;10.552;2022-09-09T00:14:44;100001.22;;;13.97;100.00
21273;BME280;36726;52.328;10.552;2022-09-09T00:17:26;100011.78;;;14.03;100.00
21273;BME280;36726;52.328;10.552;2022-09-09T00:20:09;100003.72;;;14.12;100.00
21273;BME280;36726;52.328;10.552;2022-09-09T00:22:40;100005.44;;;14.19;100.00
21273;BME280;36726;52.328;10.552;2022-09-09T00:25:14;100001.81;;;14.26;100.00
21273;BME280;36726;52.328;10.552;2022-09-09T00:27:48;100000.91;;;14.31;100.00
21273;BME280;36726;52.328;10.552;2022-09-09T00:32:47;100005.38;;;14.28;100.00
21273;BME280;36726;52.328;10.552;2022-09-09T00:35:34;99998.28;;;14.27;100.00
21273;BME280;36726;52.328;10.552;2022-09-09T00:40:46;99992.13;;;14.19;100.00
21273;BME280;36726;52.328;10.552;2022-09-09T00:43:37;99996.56;;;14.15;100.00
21273;BME280;36726;52.328;10.552;2022-09-09T00:51:44;99994.06;;;14.03;100.00
21273;BME280;36726;52.328;10.552;2022-09-09T00:54:23;99999.38;;;14.03;100.00
21273;BME280;36726;52.328;10.552;2022-09-09T00:59:47;99991.47;;;13.99;100.00
21273;BME280;36726;52.328;10.552;2022-09-09T01:11:11;100001.22;;;13.94;100.00
21273;BME280;36726;52.328;10.552;2022-09-09T01:13:45;100002.09;;;13.97;100.00
21273;BME280;36726;52.328;10.552;2022-09-09T01:16:14;100002.09;;;13.96;100.00
21273;BME280;36726;52.328;10.552;2022-09-09T01:18:45;100006.56;;;13.95;100.00
21273;BME280;36726;52.328;10.552;2022-09-09T01:21:49;100005.72;;;13.92;100.00
21273;BME280;36726;52.328;10.552;2022-09-09T01:24:27;100003.06;;;13.89;100.00
21273;BME280;36726;52.328;10.552;2022-09-09T01:27:13;100000.44;;;13.86;100.00
21273;BME280;36726;52.328;10.552;2022-09-09T01:29:41;100001.38;;;13.82;100.00
21273;BME280;36726;52.328;10.552;2022-09-09T01:32:43;100005.81;;;13.78;100.00
21273;BME280;36726;52.328;10.552;2022-09-09T01:35:26;100009.38;;;13.76;100.00
21273;BME280;36726;52.328;10.552;2022-09-09T01:37:57;99996.13;;;13.74;100.00
21273;BME280;36726;52.328;10.552;2022-09-09T01:40:25;100005.00;;;13.73;100.00
21273;BME280;36726;52.328;10.552;2022-09-09T01:42:53;100005.00;;;13.72;100.00
21273;BME280;36726;52.328;10.552;2022-09-09T01:45:21;100005.03;;;13.70;100.00
21273;BME280;36726;52.328;10.552;2022-09-09T01:47:48;99997.06;;;13.67;100.00
21273;BME280;36726;52.328;10.552;2022-09-09T01:50:19;99993.56;;;13.64;100.00
21273;BME280;36726;52.328;10.552;2022-09-09T01:52:50;99993.56;;;13.62;100.00
21273;BME280;36726;52.328;10.552;2022-09-09T01:55:28;99994.47;;;13.60;100.00
21273;BME280;36726;52.328;10.552;2022-09-09T02:00:56;99988.31;;;13.54;100.00
21273;BME280;36726;52.328;10.552;2022-09-09T02:03:29;99991.00;;;13.51;100.00
21273;BME280;36726;52.328;10.552;2022-09-09T02:06:26;99986.59;;;13.49;100.00
21273;BME280;36726;52.328;10.552;2022-09-09T02:09:02;99987.50;;;13.48;100.00
21273;BME280;36726;52.328;10.552;2022-09-09T02:11:32;99989.25;;;13.47;100.00
21273;BME280;36726;52.328;10.552;2022-09-09T02:14:10;99993.72;;;13.44;100.00
21273;BME280;36726;52.328;10.552;2022-09-09T02:16:50;99994.63;;;13.41;100.00
21273;BME280;36726;52.328;10.552;2022-09-09T02:19:28;99992.88;;;13.40;100.00
21273;BME280;36726;52.328;10.552;2022-09-09T02:22:09;99993.75;;;13.39;100.00
21273;BME280;36726;52.328;10.552;2022-09-09T02:24:38;99993.75;;;13.39;100.00
21273;BME280;36726;52.328;10.552;2022-09-09T02:27:18;99996.41;;;13.38;100.00
21273;BME280;36726;52.328;10.552;2022-09-09T02:29:45;99982.28;;;13.37;100.00
21273;BME280;36726;52.328;10.552;2022-09-09T02:32:17;99980.47;;;13.38;100.00
21273;BME280;36726;52.328;10.552;2022-09-09T02:34:49;99982.28;;;13.37;100.00
21273;BME280;36726;52.328;10.552;2022-09-09T02:37:19;99982.25;;;13.36;100.00
21273;BME280;36726;52.328;10.552;2022-09-09T02:39:50;99983.16;;;13.36;100.00
21273;BME280;36726;52.328;10.552;2022-09-09T02:42:19;99982.25;;;13.36;100.00
21273;BME280;36726;52.328;10.552;2022-09-09T02:44:46;99976.97;;;13.34;100.00
21273;BME280;36726;52.328;10.552;2022-09-09T02:47:21;99976.97;;;13.34;100.00
21273;BME280;36726;52.328;10.552;2022-09-09T02:52:32;99976.09;;;13.35;100.00
21273;BME280;36726;52.328;10.552;2022-09-09T02:55:06;99982.25;;;13.36;100.00
21273;BME280;36726;52.328;10.552;2022-09-09T02:57:37;99977.84;;;13.36;100.00
21273;BME280;36726;52.328;10.552;2022-09-09T03:00:06;99986.69;;;13.38;100.00
21273;BME280;36726;52.328;10.552;2022-09-09T03:02:33;99984.91;;;13.40;100.00
21273;BME280;36726;52.328;10.552;2022-09-09T03:05:05;99982.19;;;13.45;100.00
21273;BME280;36726;52.328;10.552;2022-09-09T03:07:32;99976.88;;;13.46;100.00
21273;BME280;36726;52.328;10.552;2022-09-09T03:10:00;99983.03;;;13.51;100.00
21273;BME280;36726;52.328;10.552;2022-09-09T03:12:26;99986.53;;;13.57;100.00
21273;BME280;36726;52.328;10.552;2022-09-09T03:14:53;99987.38;;;13.60;100.00
21273;BME280;36726;52.328;10.552;2022-09-09T03:17:20;99981.19;;;13.60;100.00
21273;BME280;36726;52.328;10.552;2022-09-09T03:19:51;99977.66;;;13.59;100.00
21273;BME280;36726;52.328;10.552;2022-09-09T03:22:21;99984.75;;;13.59;100.00
21273;BME280;36726;52.328;10.552;2022-09-09T03:24:48;99982.13;;;13.56;100.00
21273;BME280;36726;52.328;10.552;2022-09-09T03:27:14;99980.34;;;13.54;100.00
21273;BME280;36726;52.328;10.552;2022-09-09T03:29:41;99990.09;;;13.52;100.00
21273;BME280;36726;52.328;10.552;2022-09-09T03:32:12;99993.69;;;13.50;100.00
21273;BME280;36726;52.328;10.552;2022-09-09T03:34:39;99991.00;;;13.48;100.00
21273;BME280;36726;52.328;10.552;2022-09-09T03:37:09;99989.25;;;13.47;100.00
21273;BME280;36726;52.328;10.552;2022-09-09T03:39:36;99991.00;;;13.48;100.00
21273;BME280;36726;52.328;10.552;2022-09-09T03:42:03;99995.44;;;13.49;100.00
21273;BME280;36726;52.328;10.552;2022-09-09T03:44:30;99995.44;;;13.49;100.00
21273;BME280;36726;52.328;10.552;2022-09-09T03:46:57;99993.66;;;13.48;100.00
21273;BME280;36726;52.328;10.552;2022-09-09T03:49:27;99993.66;;;13.48;100.00
21273;BME280;36726;52.328;10.552;2022-09-09T03:51:57;99993.66;;;13.51;100.00
21273;BME280;36726;52.328;10.552;2022-09-09T03:54:25;99993.63;;;13.54;100.00
21273;BME280;36726;52.328;10.552;2022-09-09T03:56:51;99990.09;;;13.56;100.00
21273;BME280;36726;52.328;10.552;2022-09-09T03:59:19;99987.44;;;13.54;100.00
21273;BME280;36726;52.328;10.552;2022-09-09T04:01:47;99985.69;;;13.51;100.00
21273;BME280;36726;52.328;10.552;2022-09-09T04:04:14;99987.47;;;13.49;100.00
21273;BME280;36726;52.328;10.552;2022-09-09T04:06:40;99975.06;;;13.48;100.00
21273;BME280;36726;52.328;10.552;2022-09-09T04:09:07;99981.28;;;13.47;100.00
21273;BME280;36726;52.328;10.552;2022-09-09T04:11:34;99988.34;;;13.48;100.00
21273;BME280;36726;52.328;10.552;2022-09-09T04:14:01;99984.81;;;13.49;100.00
21273;BME280;36726;52.328;10.552;2022-09-09T04:16:29;99983.00;;;13.54;100.00
21273;BME280;36726;52.328;10.552;2022-09-09T04:18:55;99983.84;;;13.60;100.00
21273;BME280;36726;52.328;10.552;2022-09-09T04:21:22;99984.69;;;13.66;100.00
21273;BME280;36726;52.328;10.552;2022-09-09T04:23:49;99989.94;;;13.74;100.00
21273;BME280;36726;52.328;10.552;2022-09-09T04:26:17;99988.09;;;13.80;100.00
21273;BME280;36726;52.328;10.552;2022-09-09T04:28:44;99992.47;;;13.86;100.00
21273;BME280;36726;52.328;10.552;2022-09-09T04:31:19;99991.50;;;13.93;100.00
21273;BME280;36726;52.328;10.552;2022-09-09T04:33:48;99999.44;;;13.99;100.00
21273;BME280;36726;52.328;10.552;2022-09-09T04:36:16;99990.50;;;14.03;100.00
21273;BME280;36726;52.328;10.552;2022-09-09T04:38:43;99998.44;;;14.09;100.00
21273;BME280;36726;52.328;10.552;2022-09-09T04:41:11;99993.97;;;14.12;100.00
21273;BME280;36726;52.328;10.552;2022-09-09T04:43:39;99993.94;;;14.14;100.00
21273;BME280;36726;52.328;10.552;2022-09-09T04:46:08;99998.34;;;14.18;100.00
21273;BME280;36726;52.328;10.552;2022-09-09T04:48:34;99994.75;;;14.22;100.00
21273;BME280;36726;52.328;10.552;2022-09-09T04:51:05;99991.16;;;14.26;100.00
21273;BME280;36726;52.328;10.552;2022-09-09T04:53:33;100000.03;;;14.29;100.00
21273;BME280;36726;52.328;10.552;2022-09-09T04:56:10;100000.00;;;14.31;100.00
21273;BME280;36726;52.328;10.552;2022-09-09T04:58:41;99999.97;;;14.34;100.00
21273;BME280;36726;52.328;10.552;2022-09-09T05:01:15;100001.72;;;14.36;100.00
21273;BME280;36726;52.328;10.552;2022-09-09T05:03:44;99996.34;;;14.39;100.00
21273;BME280;36726;52.328;10.552;2022-09-09T05:06:19;100002.50;;;14.43;100.00
21273;BME280;36726;52.328;10.552;2022-09-09T05:08:49;100006.00;;;14.46;100.00
21273;BME280;36726;52.328;10.552;2022-09-09T05:11:27;100006.84;;;14.50;100.00
21273;BME280;36726;52.328;10.552;2022-09-09T05:13:58;100005.00;;;14.55;100.00
21273;BME280;36726;52.328;10.552;2022-09-09T05:16:25;99997.88;;;14.60;100.00
21273;BME280;36726;52.328;10.552;2022-09-09T05:18:53;100000.47;;;14.65;100.00
21273;BME280;36726;52.328;10.552;2022-09-09T05:21:22;100004.84;;;14.70;100.00
21273;BME280;36726;52.328;10.552;2022-09-09T05:23:49;100007.44;;;14.76;100.00
21273;BME280;36726;52.328;10.552;2022-09-09T05:26:20;100009.13;;;14.82;100.00
21273;BME280;36726;52.328;10.552;2022-09-09T05:28:49;100006.41;;;14.86;100.00
21273;BME280;36726;52.328;10.552;2022-09-09T05:31:17;100015.19;;;14.91;100.00
21273;BME280;36726;52.328;10.552;2022-09-09T05:33:47;100013.38;;;14.96;100.00
21273;BME280;36726;52.328;10.552;2022-09-09T05:36:20;100009.75;;;15.02;100.00
21273;BME280;36726;52.328;10.552;2022-09-09T05:38:50;100016.78;;;15.07;100.00
21273;BME280;36726;52.328;10.552;2022-09-09T05:41:18;100012.25;;;15.12;100.00
21273;BME280;36726;52.328;10.552;2022-09-09T05:43:46;100016.66;;;15.16;100.00
21273;BME280;36726;52.328;10.552;2022-09-09T05:46:19;100020.97;;;15.22;100.00
21273;BME280;36726;52.328;10.552;2022-09-09T05:48:49;100028.00;;;15.27;100.00
21273;BME280;36726;52.328;10.552;2022-09-09T05:51:22;100030.59;;;15.33;100.00
21273;BME280;36726;52.328;10.552;2022-09-09T05:53:51;100031.34;;;15.40;100.00
21273;BME280;36726;52.328;10.552;2022-09-09T05:56:20;100023.34;;;15.44;100.00
21273;BME280;36726;52.328;10.552;2022-09-09T05:58:48;100023.25;;;15.49;100.00
21273;BME280;36726;52.328;10.552;2022-09-09T06:01:20;100026.75;;;15.52;100.00
21273;BME280;36726;52.328;10.552;2022-09-09T06:03:48;100027.59;;;15.57;100.00
21273;BME280;36726;52.328;10.552;2022-09-09T06:06:17;100023.06;;;15.63;100.00
21273;BME280;36726;52.328;10.552;2022-09-09T06:08:44;100024.78;;;15.67;100.00
21273;BME280;36726;52.328;10.552;2022-09-09T06:11:15;100038.91;;;15.72;100.00
21273;BME280;36726;52.328;10.552;2022-09-09T06:13:42;100032.69;;;15.71;100.00
21273;BME280;36726;52.328;10.552;2022-09-09T06:16:14;100030.91;;;15.72;100.00
21273;BME280;36726;52.328;10.552;2022-09-09T06:18:42;100031.69;;;15.77;100.00
21273;BME280;36726;52.328;10.552;2022-09-09T06:21:12;100028.03;;;15.84;100.00
21273;BME280;36726;52.328;10.552;2022-09-09T06:23:41;100030.50;;;15.94;100.00
21273;BME280;36726;52.328;10.552;2022-09-09T06:26:17;100032.91;;;16.09;100.00
21273;BME280;36726;52.328;10.552;2022-09-09T06:28:46;100045.94;;;16.26;100.00
21273;BME280;36726;52.328;10.552;2022-09-09T06:31:15;100046.56;;;16.40;100.00
21273;BME280;36726;52.328;10.552;2022-09-09T06:33:57;100033.81;;;16.57;100.00
21273;BME280;36726;52.328;10.552;2022-09-09T06:36:36;100037.97;;;16.70;100.00
21273;BME280;36726;52.328;10.552;2022-09-09T06:39:04;100035.13;;;16.79;100.00
21273;BME280;36726;52.328;10.552;2022-09-09T06:41:34;100034.06;;;16.86;100.00
21273;BME280;36726;52.328;10.552;2022-09-09T06:44:02;100040.91;;;16.99;100.00
21273;BME280;36726;52.328;10.552;2022-09-09T06:46:37;100031.78;;;17.11;100.00
21273;BME280;36726;52.328;10.552;2022-09-09T06:49:04;100036.16;;;17.13;100.00
21273;BME280;36726;52.328;10.552;2022-09-09T06:51:34;100028.22;;;17.10;100.00
21273;BME280;36726;52.328;10.552;2022-09-09T06:54:03;100022.09;;;17.05;100.00
21273;BME280;36726;52.328;10.552;2022-09-09T06:58:59;100023.97;;;17.02;100.00
21273;BME280;36726;52.328;10.552;2022-09-09T07:01:31;100028.38;;;17.03;100.00
21273;BME280;36726;52.328;10.552;2022-09-09T07:04:02;100021.16;;;17.06;100.00
21273;BME280;36726;52.328;10.552;2022-09-09T07:06:35;100024.66;;;17.10;100.00
21273;BME280;36726;52.328;10.552;2022-09-09T07:09:08;100028.13;;;17.13;100.00
21273;BME280;36726;52.328;10.552;2022-09-09T07:11:42;100028.00;;;17.19;100.00
21273;BME280;36726;52.328;10.552;2022-09-09T07:14:10;100025.25;;;17.24;100.00
21273;BME280;36726;52.328;10.552;2022-09-09T07:16:44;100025.22;;;17.25;100.00
21273;BME280;36726;52.328;10.552;2022-09-09T07:19:12;100025.03;;;17.33;100.00
21273;BME280;36726;52.328;10.552;2022-09-09T07:21:41;100027.63;;;17.36;100.00
21273;BME280;36726;52.328;10.552;2022-09-09T07:24:09;100039.13;;;17.39;100.00
21273;BME280;36726;52.328;10.552;2022-09-09T07:26:39;100029.44;;;17.34;100.00
21273;BME280;36726;52.328;10.552;2022-09-09T07:29:07;100024.22;;;17.28;100.00
21273;BME280;36726;52.328;10.552;2022-09-09T07:31:36;100025.25;;;17.24;100.00
21273;BME280;36726;52.328;10.552;2022-09-09T07:34:06;100018.16;;;17.21;100.00
21273;BME280;36726;52.328;10.552;2022-09-09T07:36:36;100024.44;;;17.19;100.00
21273;BME280;36726;52.328;10.552;2022-09-09T07:39:08;100026.22;;;17.20;100.00
21273;BME280;36726;52.328;10.552;2022-09-09T07:41:38;100034.19;;;17.21;100.00
21273;BME280;36726;52.328;10.552;2022-09-09T07:44:14;100035.00;;;17.25;100.00
21273;BME280;36726;52.328;10.552;2022-09-09T07:46:44;100044.63;;;17.32;100.00
21273;BME280;36726;52.328;10.552;2022-09-09T07:49:16;100045.38;;;17.40;100.00
21273;BME280;36726;52.328;10.552;2022-09-09T07:51:51;100046.03;;;17.49;100.00
21273;BME280;36726;52.328;10.552;2022-09-09T07:54:19;100050.38;;;17.55;100.00
21273;BME280;36726;52.328;10.552;2022-09-09T07:56:49;100051.16;;;17.58;100.00
21273;BME280;36726;52.328;10.552;2022-09-09T07:59:17;100045.66;;;17.66;100.00
21273;BME280;36726;52.328;10.552;2022-09-09T08:01:51;100047.28;;;17.72;100.00
21273;BME280;36726;52.328;10.552;2022-09-09T08:04:25;100047.06;;;17.81;100.00
21273;BME280;36726;52.328;10.552;2022-09-09T08:06:57;100043.13;;;17.95;100.00
21273;BME280;36726;52.328;10.552;2022-09-09T08:09:26;100042.84;;;18.06;100.00
21273;BME280;36726;52.328;10.552;2022-09-09T08:12:05;100047.97;;;18.15;100.00
21273;BME280;36726;52.328;10.552;2022-09-09T08:14:35;100051.34;;;18.23;100.00
21273;BME280;36726;52.328;10.552;2022-09-09T08:17:01;100049.28;;;18.32;100.00
21273;BME280;36726;52.328;10.552;2022-09-09T08:19:30;100055.31;;;18.40;100.00
21273;BME280;36726;52.328;10.552;2022-09-09T08:22:00;100061.34;;;18.50;100.00
21273;BME280;36726;52.328;10.552;2022-09-09T08:24:29;100054.91;;;18.57;100.00
21273;BME280;36726;52.328;10.552;2022-09-09T08:26:55;100066.34;;;18.62;100.00
21273;BME280;36726;52.328;10.552;2022-09-09T08:29:23;100069.97;;;18.61;100.00
21273;BME280;36726;52.328;10.552;2022-09-09T08:31:53;100072.81;;;18.55;100.00
21273;BME280;36726;52.328;10.552;2022-09-09T08:34:21;100066.34;;;18.62;100.00
21273;BME280;36726;52.328;10.552;2022-09-09T08:36:50;100062.69;;;18.66;100.00
21273;BME280;36726;52.328;10.552;2022-09-09T08:39:21;100073.03;;;18.78;100.00
21273;BME280;36726;52.328;10.552;2022-09-09T08:41:56;100078.13;;;18.87;100.00
21273;BME280;36726;52.328;10.552;2022-09-09T08:47:27;100086.63;;;19.03;100.00
21273;BME280;36726;52.328;10.552;2022-09-09T08:52:54;100089.84;;;19.15;100.00
21273;BME280;36726;52.328;10.552;2022-09-09T08:58:17;100095.19;;;19.15;100.00
21273;BME280;36726;52.328;10.552;2022-09-09T09:06:52;100081.13;;;19.38;100.00
21273;BME280;36726;52.328;10.552;2022-09-09T09:11:58;100078.81;;;19.53;100.00
21273;BME280;36726;52.328;10.552;2022-09-09T09:14:35;100078.38;;;19.39;100.00
21273;BME280;36726;52.328;10.552;2022-09-09T09:17:34;100078.72;;;19.27;100.00
21273;BME280;36726;52.328;10.552;2022-09-09T09:20:10;100077.66;;;19.34;94.13
21273;BME280;36726;52.328;10.552;2022-09-09T09:22:47;100086.69;;;19.59;92.68
21273;BME280;36726;52.328;10.552;2022-09-09T09:25:21;100080.22;;;19.67;94.34
21273;BME280;36726;52.328;10.552;2022-09-09T09:27:58;100082.78;;;19.70;94.58
21273;BME280;36726;52.328;10.552;2022-09-09T09:30:42;100088.44;;;19.60;89.39
21273;BME280;36726;52.328;10.552;2022-09-09T09:33:22;100090.41;;;19.55;93.92
21273;BME280;36726;52.328;10.552;2022-09-09T09:35:51;100091.22;;;19.57;89.65
21273;BME280;36726;52.328;10.552;2022-09-09T09:38:24;100075.66;;;19.69;93.04
21273;BME280;36726;52.328;10.552;2022-09-09T09:41:12;100080.44;;;19.87;91.26
21273;BME280;36726;52.328;10.552;2022-09-09T09:43:40;100081.59;;;20.06;84.83
21273;BME280;36726;52.328;10.552;2022-09-09T09:46:20;100086.56;;;20.44;87.51
21273;BME280;36726;52.328;10.552;2022-09-09T09:49:10;100076.00;;;20.89;88.22
21273;BME280;36726;52.328;10.552;2022-09-09T09:51:38;100079.91;;;21.05;88.55
21273;BME280;36726;52.328;10.552;2022-09-09T09:56:50;100068.50;;;21.21;81.68
21273;BME280;36726;52.328;10.552;2022-09-09T09:59:35;100080.38;;;21.39;80.49
21273;BME280;36726;52.328;10.552;2022-09-09T10:02:21;100074.25;;;21.35;81.85
21273;BME280;36726;52.328;10.552;2022-09-09T10:05:05;100073.91;;;21.43;82.22
21273;BME280;36726;52.328;10.552;2022-09-09T10:07:34;100080.78;;;21.28;79.46
21273;BME280;36726;52.328;10.552;2022-09-09T10:10:00;100068.81;;;21.14;81.89
21273;BME280;36726;52.328;10.552;2022-09-09T10:15:38;100061.69;;;20.88;81.42
21273;BME280;36726;52.328;10.552;2022-09-09T10:23:46;100062.00;;;20.79;77.36
21273;BME280;36726;52.328;10.552;2022-09-09T10:26:38;100052.41;;;20.72;77.19
21273;BME280;36726;52.328;10.552;2022-09-09T10:32:29;100053.28;;;20.73;78.19
21273;BME280;36726;52.328;10.552;2022-09-09T10:38:04;100054.16;;;20.73;76.35
21273;BME280;36726;52.328;10.552;2022-09-09T10:43:23;100043.88;;;20.61;80.01
21273;BME280;36726;52.328;10.552;2022-09-09T10:46:12;100044.56;;;20.66;79.92
21273;BME280;36726;52.328;10.552;2022-09-09T10:49:35;100046.25;;;20.93;79.11
21273;BME280;36726;52.328;10.552;2022-09-09T10:52:17;100042.88;;;21.34;79.77
21273;BME280;36726;52.328;10.552;2022-09-09T10:54:59;100046.16;;;21.64;75.50
21273;BME280;36726;52.328;10.552;2022-09-09T10:57:36;100043.47;;;21.64;75.48
21273;BME280;36726;52.328;10.552;2022-09-09T11:00:14;100051.13;;;21.75;77.15
21273;BME280;36726;52.328;10.552;2022-09-09T11:02:42;100057.41;;;21.74;70.46
21273;BME280;36726;52.328;10.552;2022-09-09T11:05:19;100043.41;;;21.65;74.09
21273;BME280;36726;52.328;10.552;2022-09-09T11:07:58;100032.41;;;21.50;72.16
21273;BME280;36726;52.328;10.552;2022-09-09T11:13:26;100025.28;;;21.26;72.99
21273;BME280;36726;52.328;10.552;2022-09-09T11:18:39;100030.72;;;21.24;75.49
21273;BME280;36726;52.328;10.552;2022-09-09T11:21:25;100026.19;;;21.26;74.94
21273;BME280;36726;52.328;10.552;2022-09-09T11:24:01;100022.53;;;21.27;72.66
21273;BME280;36726;52.328;10.552;2022-09-09T11:26:39;100026.84;;;21.31;73.41
21273;BME280;36726;52.328;10.552;2022-09-09T11:32:34;100033.88;;;21.35;73.86
21273;BME280;36726;52.328;10.552;2022-09-09T11:38:16;100048.38;;;21.31;73.38
21273;BME280;36726;52.328;10.552;2022-09-09T11:40:45;100051.59;;;21.18;74.35
21273;BME280;36726;52.328;10.552;2022-09-09T11:43:24;100060.31;;;21.01;77.44
21273;BME280;36726;52.328;10.552;2022-09-09T11:45:54;100060.03;;;20.84;78.61
21273;BME280;36726;52.328;10.552;2022-09-09T11:48:38;100057.69;;;20.75;79.24
21273;BME280;36726;52.328;10.552;2022-09-09T11:51:48;100052.50;;;20.71;80.20
21273;BME280;36726;52.328;10.552;2022-09-09T11:54:01;100054.38;;;20.67;80.15
21273;BME280;36726;52.328;10.552;2022-09-09T11:56:32;100038.97;;;20.72;80.56
21273;BME280;36726;52.328;10.552;2022-09-09T12:01:45;100034.38;;;20.99;80.48
21273;BME280;36726;52.328;10.552;2022-09-09T12:04:21;100035.66;;;21.13;81.20
21273;BME280;36726;52.328;10.552;2022-09-09T12:09:49;100033.75;;;21.38;81.93
21273;BME280;36726;52.328;10.552;2022-09-09T12:12:21;100035.13;;;21.48;82.00
21273;BME280;36726;52.328;10.552;2022-09-09T12:14:56;100030.94;;;21.63;82.66
21273;BME280;36726;52.328;10.552;2022-09-09T12:17:24;100026.69;;;21.81;81.73
21273;BME280;36726;52.328;10.552;2022-09-09T12:20:03;100026.75;;;21.99;80.88
21273;BME280;36726;52.328;10.552;2022-09-09T12:31:28;100037.94;;;22.52;76.23
21273;BME280;36726;52.328;10.552;2022-09-09T12:34:10;100033.94;;;22.62;75.81
21273;BME280;36726;52.328;10.552;2022-09-09T12:36:39;100036.19;;;22.71;73.13
21273;BME280;36726;52.328;10.552;2022-09-09T12:39:18;100035.72;;;22.82;71.98
21273;BME280;36726;52.328;10.552;2022-09-09T12:41:53;100025.69;;;22.85;70.03
21273;BME280;36726;52.328;10.552;2022-09-09T12:44:25;100024.72;;;22.86;69.08
21273;BME280;36726;52.328;10.552;2022-09-09T12:46:56;100027.56;;;22.83;65.16
21273;BME280;36726;52.328;10.552;2022-09-09T12:51:52;100024.31;;;22.75;63.18
21273;BME280;36726;52.328;10.552;2022-09-09T12:54:19;100025.34;;;22.73;64.02
21273;BME280;36726;52.328;10.552;2022-09-09T12:56:47;100022.72;;;22.51;63.52
21273;BME280;36726;52.328;10.552;2022-09-09T12:59:26;100031.84;;;22.27;64.88
21273;BME280;36726;52.328;10.552;2022-09-09T13:01:57;100023.50;;;22.13;66.20
21273;BME280;36726;52.328;10.552;2022-09-09T13:04:25;100035.88;;;21.97;64.41
21273;BME280;36726;52.328;10.552;2022-09-09T13:06:52;100026.41;;;21.87;66.02
21273;BME280;36726;52.328;10.552;2022-09-09T13:09:19;100028.63;;;21.76;66.34
21273;BME280;36726;52.328;10.552;2022-09-09T13:11:52;100048.59;;;21.70;66.66
21273;BME280;36726;52.328;10.552;2022-09-09T13:14:30;100038.53;;;21.75;68.38
21273;BME280;36726;52.328;10.552;2022-09-09T13:17:00;100026.88;;;21.75;66.00
21273;BME280;36726;52.328;10.552;2022-09-09T13:19:32;100030.88;;;21.64;65.17
21273;BME280;36726;52.328;10.552;2022-09-09T13:22:12;100038.91;;;21.66;65.27
21273;BME280;36726;52.328;10.552;2022-09-09T13:24:39;100023.69;;;21.65;65.46
21273;BME280;36726;52.328;10.552;2022-09-09T13:27:28;100021.88;;;21.65;64.92
21273;BME280;36726;52.328;10.552;2022-09-09T13:29:56;100023.84;;;21.84;66.77
21273;BME280;36726;52.328;10.552;2022-09-09T13:32:24;100013.50;;;21.95;65.98
21273;BME280;36726;52.328;10.552;2022-09-09T13:35:00;100019.03;;;22.12;65.96
21273;BME280;36726;52.328;10.552;2022-09-09T13:37:36;100008.53;;;22.06;66.25
21273;BME280;36726;52.328;10.552;2022-09-09T13:40:05;100004.22;;;22.02;67.59
21273;BME280;36726;52.328;10.552;2022-09-09T13:42:35;100008.47;;;22.07;66.26
21273;BME280;36726;52.328;10.552;2022-09-09T13:45:04;100008.00;;;22.18;63.04
21273;BME280;36726;52.328;10.552;2022-09-09T13:47:35;100008.28;;;22.32;61.73
21273;BME280;36726;52.328;10.552;2022-09-09T13:50:25;100008.19;;;22.53;60.30
21273;BME280;36726;52.328;10.552;2022-09-09T13:52:54;100011.34;;;22.64;60.09
21273;BME280;36726;52.328;10.552;2022-09-09T13:55:22;100013.94;;;22.66;58.53
21273;BME280;36726;52.328;10.552;2022-09-09T13:57:53;100014.69;;;22.70;58.89
21273;BME280;36726;52.328;10.552;2022-09-09T14:00:21;100015.56;;;22.70;57.88
21273;BME280;36726;52.328;10.552;2022-09-09T14:02:48;100007.16;;;22.57;59.13
21273;BME280;36726;52.328;10.552;2022-09-09T14:05:15;100004.25;;;22.42;58.85
21273;BME280;36726;52.328;10.552;2022-09-09T14:07:43;100006.53;;;22.31;59.78
21273;BME280;36726;52.328;10.552;2022-09-09T14:10:11;100019.59;;;22.20;59.19
21273;BME280;36726;52.328;10.552;2022-09-09T14:12:38;100019.03;;;22.12;59.75
21273;BME280;36726;52.328;10.552;2022-09-09T14:15:06;100014.75;;;22.08;61.31
21273;BME280;36726;52.328;10.552;2022-09-09T14:17:33;100016.63;;;22.06;61.69
21273;BME280;36726;52.328;10.552;2022-09-09T14:20:06;100012.91;;;22.08;61.67
21273;BME280;36726;52.328;10.552;2022-09-09T14:22:36;100010.13;;;22.10;62.13
21273;BME280;36726;52.328;10.552;2022-09-09T14:25:03;100011.97;;;22.09;63.11
21273;BME280;36726;52.328;10.552;2022-09-09T14:27:29;100020.97;;;22.08;63.10
21273;BME280;36726;52.328;10.552;2022-09-09T14:29:56;100024.63;;;22.07;63.44
21273;BME280;36726;52.328;10.552;2022-09-09T14:32:24;100029.13;;;22.07;62.63
21273;BME280;36726;52.328;10.552;2022-09-09T14:34:50;100028.47;;;22.02;62.73
21273;BME280;36726;52.328;10.552;2022-09-09T14:37:17;100023.38;;;21.94;62.43
21273;BME280;36726;52.328;10.552;2022-09-09T14:39:44;100027.22;;;21.89;62.41
21273;BME280;36726;52.328;10.552;2022-09-09T14:42:11;100028.41;;;21.82;62.61